Time;durP1;ratioP1;P1;durP2;ratioP2;P2;SDS_P1;SDS_P2;PMS_P1;PMS_P2;Temp;Humidity;BMP_temperature;BMP_pressure;BME280_temperature;BME280_humidity;BME280_pressure;Samples;Min_cycle;Max_cycle;Signal;HPM_P1;HPM_P2
2023/05/17 00:00:08;;;;;;;35.65;6.40;;;;;;;;;;5031971;28;20025;-74
2023/05/17 00:02:34;;;;;;;38.65;6.07;;;;;;;;;;5024872;28;20117;-74
2023/05/17 00:05:00;;;;;;;42.53;6.85;;;;;;;;;;5031867;28;20013;-73
2023/05/17 00:07:26;;;;;;;40.35;6.35;;;;;;;;;;5031858;28;20388;-74
2023/05/17 00:09:52;;;;;;;38.85;6.10;;;;;;;;;;5032065;28;20148;-75
2023/05/17 00:12:18;;;;;;;44.40;5.47;;;;;;;;;;5030695;28;20030;-73
2023/05/17 00:14:44;;;;;;;40.35;6.75;;;;;;;;;;5032750;28;20486;-74
2023/05/17 00:17:10;;;;;;;37.97;5.97;;;;;;;;;;5032285;28;20021;-74
2023/05/17 00:19:36;;;;;;;46.15;6.15;;;;;;;;;;5032185;28;20049;-75
2023/05/17 00:22:02;;;;;;;41.60;6.80;;;;;;;;;;5032136;28;20083;-75
2023/05/17 00:24:28;;;;;;;33.90;5.80;;;;;;;;;;5032392;28;20029;-74
2023/05/17 00:26:54;;;;;;;40.03;6.03;;;;;;;;;;5032462;28;20471;-72
2023/05/17 00:29:20;;;;;;;37.17;5.97;;;;;;;;;;5033386;28;20387;-73
2023/05/17 00:31:46;;;;;;;48.10;5.82;;;;;;;;;;5033072;28;20029;-72
2023/05/17 00:34:12;;;;;;;40.35;6.15;;;;;;;;;;5033324;28;20458;-73
2023/05/17 00:36:38;;;;;;;41.60;6.75;;;;;;;;;;5032943;28;20077;-73
2023/05/17 00:39:04;;;;;;;43.63;8.02;;;;;;;;;;5033279;28;20075;-74
2023/05/17 00:41:29;;;;;;;27.50;4.85;;;;;;;;;;5033072;28;20388;-72
2023/05/17 00:43:55;;;;;;;44.22;6.72;;;;;;;;;;5033292;28;20033;-73
2023/05/17 00:46:21;;;;;;;35.63;6.60;;;;;;;;;;5032048;28;20032;-75
2023/05/17 00:48:47;;;;;;;38.08;6.15;;;;;;;;;;5033301;28;20033;-74
2023/05/17 00:51:15;;;;;;;51.20;7.65;;;;;;;;;;5032890;28;20082;-72
2023/05/17 00:53:41;;;;;;;39.95;6.50;;;;;;;;;;5032575;28;20096;-73
2023/05/17 00:56:08;;;;;;;38.95;5.80;;;;;;;;;;5032537;28;20171;-74
2023/05/17 00:58:34;;;;;;;35.67;6.05;;;;;;;;;;5032193;28;20033;-73
2023/05/17 01:01:01;;;;;;;49.63;6.47;;;;;;;;;;5031888;28;20021;-73
2023/05/17 01:03:27;;;;;;;47.05;6.45;;;;;;;;;;5031291;28;20349;-73
2023/05/17 01:05:53;;;;;;;35.13;5.93;;;;;;;;;;5031453;28;20033;-75
2023/05/17 01:08:19;;;;;;;45.55;6.53;;;;;;;;;;5031977;28;20051;-75
2023/05/17 01:10:52;;;;;;;40.40;6.38;;;;;;;;;;5031841;28;20072;-74
2023/05/17 01:13:20;;;;;;;37.55;5.75;;;;;;;;;;5031597;28;20032;-74
2023/05/17 01:15:50;;;;;;;46.38;6.43;;;;;;;;;;5031827;28;20494;-74
2023/05/17 01:18:26;;;;;;;43.47;6.60;;;;;;;;;;5031713;28;20039;-73
2023/05/17 01:20:52;;;;;;;42.58;5.70;;;;;;;;;;5030697;28;20033;-73
2023/05/17 01:23:18;;;;;;;43.47;5.55;;;;;;;;;;5031442;28;20025;-75
2023/05/17 01:25:59;;;;;;;33.00;4.53;;;;;;;;;;5031813;28;20151;-74
2023/05/17 01:28:26;;;;;;;34.20;5.03;;;;;;;;;;5031755;28;20026;-76
2023/05/17 01:30:53;;;;;;;30.48;5.07;;;;;;;;;;5031452;28;20036;-73
2023/05/17 01:33:19;;;;;;;41.40;6.53;;;;;;;;;;5031496;28;20383;-74
2023/05/17 01:35:45;;;;;;;37.38;5.05;;;;;;;;;;5031981;28;20029;-73
2023/05/17 01:38:11;;;;;;;38.25;5.30;;;;;;;;;;5032528;28;20126;-74
2023/05/17 01:40:40;;;;;;;43.55;5.95;;;;;;;;;;5031384;28;20126;-74
2023/05/17 01:43:17;;;;;;;37.58;4.35;;;;;;;;;;5031205;28;20033;-74
2023/05/17 01:45:48;;;;;;;45.80;5.57;;;;;;;;;;5031622;28;20026;-73
2023/05/17 01:48:23;;;;;;;47.15;5.65;;;;;;;;;;5031296;28;20141;-73
2023/05/17 01:50:50;;;;;;;30.95;4.78;;;;;;;;;;5031524;28;20030;-73
2023/05/17 01:53:30;;;;;;;29.60;4.38;;;;;;;;;;5032590;28;20112;-73
2023/05/17 01:56:09;;;;;;;32.45;4.63;;;;;;;;;;5031956;28;20036;-73
2023/05/17 01:58:39;;;;;;;30.95;3.95;;;;;;;;;;5030924;28;20560;-73
2023/05/17 02:01:05;;;;;;;28.48;4.28;;;;;;;;;;5030690;28;20032;-74
2023/05/17 02:03:31;;;;;;;37.15;4.53;;;;;;;;;;5030353;28;20407;-73
2023/05/17 02:05:57;;;;;;;24.83;4.45;;;;;;;;;;5030278;28;20021;-74
2023/05/17 02:08:23;;;;;;;24.20;3.97;;;;;;;;;;5030323;28;20095;-74
2023/05/17 02:10:49;;;;;;;25.70;3.67;;;;;;;;;;5030091;28;20365;-74
2023/05/17 02:13:15;;;;;;;25.33;5.20;;;;;;;;;;5031246;28;20032;-73
2023/05/17 02:15:41;;;;;;;30.33;3.53;;;;;;;;;;5032700;28;20033;-74
2023/05/17 02:18:07;;;;;;;31.02;4.35;;;;;;;;;;5035711;28;20026;-73
2023/05/17 02:20:33;;;;;;;37.17;4.82;;;;;;;;;;5035686;28;20033;-73
2023/05/17 02:22:59;;;;;;;23.58;3.80;;;;;;;;;;5034747;28;20150;-74
2023/05/17 02:25:25;;;;;;;33.88;4.32;;;;;;;;;;5034840;28;20503;-74
2023/05/17 02:27:51;;;;;;;30.17;4.38;;;;;;;;;;5034636;28;20184;-74
2023/05/17 02:30:17;;;;;;;29.90;4.93;;;;;;;;;;5034457;28;20471;-73
2023/05/17 02:32:43;;;;;;;34.55;4.50;;;;;;;;;;5033622;28;20021;-74
2023/05/17 02:35:09;;;;;;;31.20;4.57;;;;;;;;;;5033695;28;20075;-74
2023/05/17 02:37:35;;;;;;;25.15;3.90;;;;;;;;;;5033707;28;20025;-73
2023/05/17 02:40:01;;;;;;;29.65;4.50;;;;;;;;;;5033697;28;20028;-75
2023/05/17 02:42:27;;;;;;;26.23;3.88;;;;;;;;;;5033521;28;20494;-73
2023/05/17 02:44:55;;;;;;;34.78;4.35;;;;;;;;;;5033531;28;20130;-74
2023/05/17 02:47:21;;;;;;;45.20;4.97;;;;;;;;;;5033519;28;20022;-74
2023/05/17 02:49:47;;;;;;;37.90;5.00;;;;;;;;;;5033444;28;20022;-73
2023/05/17 02:52:15;;;;;;;35.05;4.60;;;;;;;;;;5033178;28;20029;-74
2023/05/17 02:54:42;;;;;;;27.50;3.45;;;;;;;;;;5033526;28;20017;-73
2023/05/17 02:57:09;;;;;;;24.65;3.90;;;;;;;;;;5033384;28;20025;-73
2023/05/17 02:59:35;;;;;;;25.45;3.83;;;;;;;;;;5033219;28;20506;-74
2023/05/17 03:02:01;;;;;;;29.10;4.25;;;;;;;;;;5032789;28;20087;-74
2023/05/17 03:04:28;;;;;;;31.13;4.30;;;;;;;;;;5030349;28;20030;-76
2023/05/17 03:06:54;;;;;;;28.27;3.60;;;;;;;;;;5033177;28;20021;-74
2023/05/17 03:09:21;;;;;;;23.10;4.22;;;;;;;;;;5049341;28;20498;-73
2023/05/17 03:11:47;;;;;;;23.30;4.25;;;;;;;;;;5054730;28;20079;-73
2023/05/17 03:14:13;;;;;;;24.63;3.75;;;;;;;;;;5054572;28;20093;-74
2023/05/17 03:16:39;;;;;;;21.25;3.58;;;;;;;;;;5053363;28;20071;-74
2023/05/17 03:19:05;;;;;;;30.23;4.20;;;;;;;;;;5053089;28;20494;-75
2023/05/17 03:21:31;;;;;;;27.10;3.58;;;;;;;;;;5054619;28;20934;-74
2023/05/17 03:23:57;;;;;;;25.83;3.85;;;;;;;;;;5051885;28;20029;-72
2023/05/17 03:26:23;;;;;;;24.48;4.20;;;;;;;;;;5052780;28;20086;-75
2023/05/17 03:28:50;;;;;;;27.23;3.75;;;;;;;;;;5052183;28;20086;-74
2023/05/17 03:31:16;;;;;;;21.13;4.35;;;;;;;;;;5053484;28;20390;-74
2023/05/17 03:33:42;;;;;;;30.55;3.03;;;;;;;;;;5053734;28;20021;-73
2023/05/17 03:36:08;;;;;;;33.90;3.95;;;;;;;;;;5054682;28;20024;-73
2023/05/17 03:38:34;;;;;;;21.55;3.88;;;;;;;;;;5055653;28;20111;-74
2023/05/17 03:41:00;;;;;;;25.85;3.58;;;;;;;;;;5057057;28;20079;-73
2023/05/17 03:43:27;;;;;;;28.95;3.47;;;;;;;;;;5059823;28;20032;-73
2023/05/17 03:45:53;;;;;;;25.60;3.67;;;;;;;;;;5055372;28;20502;-76
2023/05/17 03:48:19;;;;;;;30.95;4.18;;;;;;;;;;5053560;28;20569;-77
2023/05/17 03:50:45;;;;;;;28.30;4.47;;;;;;;;;;5053671;28;20120;-75
2023/05/17 03:53:11;;;;;;;29.05;3.53;;;;;;;;;;5056118;28;20025;-73
2023/05/17 03:55:37;;;;;;;31.95;4.30;;;;;;;;;;5038892;28;20040;-76
2023/05/17 03:58:03;;;;;;;25.35;3.63;;;;;;;;;;5035207;28;20029;-78
2023/05/17 04:00:29;;;;;;;32.90;4.80;;;;;;;;;;5034573;28;21502;-75
2023/05/17 04:02:56;;;;;;;32.28;5.80;;;;;;;;;;5035384;28;20033;-77
2023/05/17 04:05:22;;;;;;;26.75;3.95;;;;;;;;;;5033087;28;20044;-77
2023/05/17 04:07:48;;;;;;;30.83;4.53;;;;;;;;;;5036186;28;20113;-73
2023/05/17 04:10:14;;;;;;;40.80;5.30;;;;;;;;;;5036248;28;20036;-75
2023/05/17 04:12:40;;;;;;;41.88;4.45;;;;;;;;;;5036147;28;20118;-74
2023/05/17 04:15:06;;;;;;;35.25;4.93;;;;;;;;;;5034668;28;20033;-75
2023/05/17 04:17:32;;;;;;;27.20;3.95;;;;;;;;;;5032775;28;20025;-74
2023/05/17 04:19:58;;;;;;;43.10;5.43;;;;;;;;;;5033404;28;20022;-74
2023/05/17 04:22:24;;;;;;;39.33;8.98;;;;;;;;;;5032779;28;20399;-74
2023/05/17 04:24:50;;;;;;;34.55;5.63;;;;;;;;;;5032809;28;20041;-74
2023/05/17 04:27:16;;;;;;;33.75;5.45;;;;;;;;;;5033508;28;20045;-74
2023/05/17 04:29:42;;;;;;;34.30;5.55;;;;;;;;;;5032901;28;20507;-75
2023/05/17 04:32:08;;;;;;;30.85;4.38;;;;;;;;;;5030243;28;20037;-75
2023/05/17 04:34:35;;;;;;;36.83;4.85;;;;;;;;;;5032940;28;20021;-75
2023/05/17 04:37:01;;;;;;;31.10;3.85;;;;;;;;;;5032306;28;20513;-73
2023/05/17 04:39:27;;;;;;;33.75;4.15;;;;;;;;;;5032284;28;20022;-75
2023/05/17 04:41:53;;;;;;;28.60;3.83;;;;;;;;;;5032001;28;20028;-74
2023/05/17 04:44:19;;;;;;;29.60;4.38;;;;;;;;;;5032608;28;20046;-76
2023/05/17 04:46:45;;;;;;;32.40;5.10;;;;;;;;;;5032483;28;20096;-74
2023/05/17 04:49:11;;;;;;;24.55;4.38;;;;;;;;;;5032162;28;20026;-77
2023/05/17 04:51:37;;;;;;;29.48;4.20;;;;;;;;;;5032097;28;20025;-76
2023/05/17 04:54:05;;;;;;;32.22;4.95;;;;;;;;;;5030698;28;20022;-75
2023/05/17 04:56:31;;;;;;;38.85;5.03;;;;;;;;;;5032764;28;20020;-74
2023/05/17 04:58:57;;;;;;;29.48;4.57;;;;;;;;;;5032756;28;20028;-75
2023/05/17 05:01:23;;;;;;;47.40;5.47;;;;;;;;;;5032755;28;20405;-74
2023/05/17 05:03:49;;;;;;;26.63;4.35;;;;;;;;;;5032805;28;20022;-73
2023/05/17 05:06:15;;;;;;;33.13;4.57;;;;;;;;;;5032670;28;20504;-75
2023/05/17 05:08:41;;;;;;;32.95;5.03;;;;;;;;;;5032446;28;20037;-74
2023/05/17 05:11:07;;;;;;;29.85;5.38;;;;;;;;;;5032002;28;20033;-73
2023/05/17 05:13:33;;;;;;;24.60;4.90;;;;;;;;;;5031857;28;20475;-74
2023/05/17 05:15:59;;;;;;;34.03;4.97;;;;;;;;;;5032249;28;20018;-74
2023/05/17 05:18:26;;;;;;;29.00;4.90;;;;;;;;;;5032622;28;20022;-74
2023/05/17 05:20:52;;;;;;;21.25;3.97;;;;;;;;;;5031824;28;20029;-74
2023/05/17 05:23:18;;;;;;;34.70;4.68;;;;;;;;;;5031528;28;20095;-75
2023/05/17 05:25:44;;;;;;;28.67;5.05;;;;;;;;;;5031969;28;20080;-75
2023/05/17 05:28:10;;;;;;;38.58;5.00;;;;;;;;;;5032019;28;20025;-77
2023/05/17 05:30:36;;;;;;;38.17;5.43;;;;;;;;;;5033509;28;20083;-75
2023/05/17 05:33:02;;;;;;;23.30;4.65;;;;;;;;;;5031473;28;20018;-76
2023/05/17 05:35:28;;;;;;;28.90;5.20;;;;;;;;;;5031699;28;20379;-77
2023/05/17 05:37:55;;;;;;;38.45;4.72;;;;;;;;;;5032254;28;20104;-75
2023/05/17 05:40:21;;;;;;;34.70;4.63;;;;;;;;;;5031678;28;20530;-75
2023/05/17 05:42:47;;;;;;;24.58;3.63;;;;;;;;;;5031389;28;20112;-73
2023/05/17 05:45:13;;;;;;;24.58;3.70;;;;;;;;;;5031921;28;20026;-76
2023/05/17 05:47:39;;;;;;;29.55;3.83;;;;;;;;;;5032335;28;20033;-76
2023/05/17 05:50:06;;;;;;;30.40;4.47;;;;;;;;;;5031666;28;20452;-75
2023/05/17 05:52:32;;;;;;;22.65;4.25;;;;;;;;;;5035436;28;20025;-76
2023/05/17 05:54:58;;;;;;;27.95;4.38;;;;;;;;;;5034654;28;20452;-76
2023/05/17 05:57:24;;;;;;;24.00;3.95;;;;;;;;;;5035819;28;20032;-75
2023/05/17 05:59:50;;;;;;;24.85;3.58;;;;;;;;;;5035728;28;20017;-75
2023/05/17 06:02:19;;;;;;;30.52;4.38;;;;;;;;;;5035290;28;20049;-75
2023/05/17 06:04:46;;;;;;;33.80;4.07;;;;;;;;;;5035446;28;20052;-77
2023/05/17 06:07:13;;;;;;;31.63;4.28;;;;;;;;;;5035650;28;20021;-76
2023/05/17 06:09:39;;;;;;;29.65;4.25;;;;;;;;;;5036886;28;20041;-77
2023/05/17 06:12:05;;;;;;;29.38;4.43;;;;;;;;;;5036504;28;20494;-76
2023/05/17 06:14:31;;;;;;;25.95;4.57;;;;;;;;;;5035591;28;20021;-76
2023/05/17 06:16:57;;;;;;;23.77;3.45;;;;;;;;;;5035707;28;20028;-73
2023/05/17 06:19:23;;;;;;;22.55;3.20;;;;;;;;;;5035251;28;20545;-73
2023/05/17 06:21:49;;;;;;;30.17;3.80;;;;;;;;;;5034958;28;20048;-75
2023/05/17 06:24:15;;;;;;;30.35;3.85;;;;;;;;;;5035605;28;20029;-76
2023/05/17 06:26:42;;;;;;;29.13;3.40;;;;;;;;;;5035721;28;20109;-77
2023/05/17 06:29:09;;;;;;;21.88;4.05;;;;;;;;;;5036600;28;20022;-77
2023/05/17 06:31:35;;;;;;;28.85;4.57;;;;;;;;;;5035148;28;20029;-76
2023/05/17 06:34:01;;;;;;;18.63;3.35;;;;;;;;;;5035014;28;20435;-75
2023/05/17 06:36:27;;;;;;;18.13;3.22;;;;;;;;;;5035254;28;20072;-77
2023/05/17 06:38:53;;;;;;;25.60;4.60;;;;;;;;;;5035501;28;20379;-75
2023/05/17 06:41:19;;;;;;;22.85;4.03;;;;;;;;;;5035903;28;20440;-75
2023/05/17 06:43:45;;;;;;;21.42;4.60;;;;;;;;;;5035827;28;20117;-77
2023/05/17 06:46:11;;;;;;;25.90;3.90;;;;;;;;;;5035365;28;20100;-76
2023/05/17 06:48:37;;;;;;;23.40;5.20;;;;;;;;;;5034993;28;20084;-77
2023/05/17 06:51:03;;;;;;;29.80;4.75;;;;;;;;;;5035642;28;20029;-75
2023/05/17 06:53:29;;;;;;;21.63;3.47;;;;;;;;;;5034194;28;20099;-75
2023/05/17 06:55:55;;;;;;;30.77;4.05;;;;;;;;;;5034233;28;20028;-72
2023/05/17 06:58:21;;;;;;;21.95;3.80;;;;;;;;;;5033345;28;20124;-73
2023/05/17 07:00:47;;;;;;;22.73;3.70;;;;;;;;;;5033113;28;20029;-73
2023/05/17 07:03:13;;;;;;;24.73;4.38;;;;;;;;;;5032816;28;20131;-73
2023/05/17 07:05:39;;;;;;;24.50;3.15;;;;;;;;;;5033234;28;20021;-72
2023/05/17 07:08:05;;;;;;;22.42;4.53;;;;;;;;;;5032946;28;20040;-74
2023/05/17 07:10:31;;;;;;;24.05;5.13;;;;;;;;;;5032960;28;20029;-73
2023/05/17 07:12:57;;;;;;;39.33;6.63;;;;;;;;;;5032901;28;20390;-74
2023/05/17 07:15:23;;;;;;;33.80;6.85;;;;;;;;;;5033363;28;20014;-72
2023/05/17 07:17:49;;;;;;;27.15;4.78;;;;;;;;;;5032982;28;20017;-72
2023/05/17 07:20:15;;;;;;;28.75;5.53;;;;;;;;;;5032787;28;20387;-73
2023/05/17 07:22:41;;;;;;;26.30;4.13;;;;;;;;;;5032875;28;20031;-73
2023/05/17 07:25:07;;;;;;;29.55;5.60;;;;;;;;;;5032758;28;20029;-73
2023/05/17 07:27:33;;;;;;;32.00;6.75;;;;;;;;;;5032845;28;20434;-74
2023/05/17 07:30:00;;;;;;;32.53;9.25;;;;;;;;;;5029859;28;20411;-74
2023/05/17 07:32:26;;;;;;;34.30;8.57;;;;;;;;;;5032500;28;20414;-72
2023/05/17 07:34:53;;;;;;;29.45;8.70;;;;;;;;;;5032620;28;20030;-72
2023/05/17 07:37:19;;;;;;;33.90;8.35;;;;;;;;;;5032700;28;20032;-72
2023/05/17 07:39:45;;;;;;;24.33;3.90;;;;;;;;;;5032479;28;20091;-74
2023/05/17 07:42:11;;;;;;;22.15;3.63;;;;;;;;;;5032069;28;20029;-72
2023/05/17 07:44:37;;;;;;;25.15;4.30;;;;;;;;;;5032521;28;20025;-72
2023/05/17 07:47:03;;;;;;;57.00;15.90;;;;;;;;;;5033026;28;20452;-73
2023/05/17 07:49:31;;;;;;;24.70;6.70;;;;;;;;;;5032282;28;20037;-74
2023/05/17 07:51:57;;;;;;;24.50;3.75;;;;;;;;;;5031963;28;20029;-71
2023/05/17 07:54:23;;;;;;;25.77;4.40;;;;;;;;;;5032184;28;20386;-72
2023/05/17 07:56:51;;;;;;;20.80;3.70;;;;;;;;;;5032838;28;20356;-78
2023/05/17 07:59:17;;;;;;;21.85;3.78;;;;;;;;;;5033288;28;20021;-73
2023/05/17 08:01:44;;;;;;;30.27;4.38;;;;;;;;;;5033434;28;20042;-72
2023/05/17 08:04:10;;;;;;;26.58;3.75;;;;;;;;;;5031717;28;20033;-74
2023/05/17 08:06:36;;;;;;;23.70;4.03;;;;;;;;;;5033248;28;20037;-74
2023/05/17 08:09:03;;;;;;;22.23;3.72;;;;;;;;;;5032789;28;20099;-75
2023/05/17 08:11:30;;;;;;;27.40;4.15;;;;;;;;;;5032800;28;20040;-76
2023/05/17 08:13:56;;;;;;;21.48;4.32;;;;;;;;;;5035308;28;20047;-78
2023/05/17 08:16:22;;;;;;;24.55;3.78;;;;;;;;;;5033778;28;20515;-75
2023/05/17 08:18:48;;;;;;;22.83;3.85;;;;;;;;;;5034548;28;20029;-80
2023/05/17 08:21:14;;;;;;;22.55;3.95;;;;;;;;;;5034515;28;20033;-78
2023/05/17 08:23:40;;;;;;;23.55;4.18;;;;;;;;;;5033446;28;20551;-76
2023/05/17 08:26:06;;;;;;;20.27;4.03;;;;;;;;;;5031439;28;20075;-77
2023/05/17 08:28:33;;;;;;;26.83;3.92;;;;;;;;;;5032853;28;20029;-78
2023/05/17 08:30:59;;;;;;;27.88;3.90;;;;;;;;;;5032768;28;20653;-75
2023/05/17 08:33:26;;;;;;;24.92;4.07;;;;;;;;;;5032518;28;20530;-76
2023/05/17 08:35:54;;;;;;;22.83;3.85;;;;;;;;;;5032939;28;20033;-74
2023/05/17 08:38:20;;;;;;;26.70;4.05;;;;;;;;;;5032303;28;20028;-73
2023/05/17 08:40:53;;;;;;;16.20;3.38;;;;;;;;;;5032356;28;20025;-75
2023/05/17 08:43:20;;;;;;;21.52;4.88;;;;;;;;;;5032163;28;20025;-72
2023/05/17 08:45:48;;;;;;;25.23;4.22;;;;;;;;;;5032407;28;20387;-74
2023/05/17 08:48:16;;;;;;;23.70;4.10;;;;;;;;;;5032518;28;20100;-74
2023/05/17 08:50:42;;;;;;;19.08;3.92;;;;;;;;;;5032156;28;20033;-73
2023/05/17 08:53:09;;;;;;;24.08;3.63;;;;;;;;;;5029072;28;20364;-75
2023/05/17 08:55:35;;;;;;;20.00;3.92;;;;;;;;;;5032258;28;20505;-73
2023/05/17 08:58:02;;;;;;;22.40;3.60;;;;;;;;;;5046758;28;20390;-73
2023/05/17 09:00:31;;;;;;;19.60;4.00;;;;;;;;;;5052864;28;20024;-73
2023/05/17 09:02:57;;;;;;;23.23;4.03;;;;;;;;;;5051479;28;20088;-74
2023/05/17 09:05:24;;;;;;;24.77;4.72;;;;;;;;;;5052466;28;20020;-72
2023/05/17 09:07:51;;;;;;;27.80;4.70;;;;;;;;;;5052805;28;20122;-75
2023/05/17 09:10:17;;;;;;;26.60;4.07;;;;;;;;;;5051824;28;20021;-75
2023/05/17 09:12:43;;;;;;;23.95;4.00;;;;;;;;;;5051173;28;20033;-73
2023/05/17 09:15:19;;;;;;;33.80;4.07;;;;;;;;;;5051752;28;20102;-73
2023/05/17 09:17:55;;;;;;;30.75;4.82;;;;;;;;;;5051891;28;20032;-74
2023/05/17 09:20:22;;;;;;;24.92;3.70;;;;;;;;;;5052106;28;20025;-76
2023/05/17 09:22:49;;;;;;;22.73;4.13;;;;;;;;;;5052289;28;20040;-76
2023/05/17 09:25:18;;;;;;;30.38;5.03;;;;;;;;;;5050923;28;20025;-72
2023/05/17 09:27:45;;;;;;;25.33;4.78;;;;;;;;;;5051539;28;20057;-73
2023/05/17 09:30:11;;;;;;;19.95;3.88;;;;;;;;;;5051334;28;20439;-75
2023/05/17 09:32:43;;;;;;;27.10;4.60;;;;;;;;;;5050960;28;20112;-73
2023/05/17 09:35:10;;;;;;;30.13;6.60;;;;;;;;;;5051343;28;20036;-75
2023/05/17 09:37:38;;;;;;;27.92;7.40;;;;;;;;;;5051458;28;20025;-74
2023/05/17 09:40:05;;;;;;;27.90;4.43;;;;;;;;;;5051435;28;20441;-74
2023/05/17 09:42:36;;;;;;;19.15;4.75;;;;;;;;;;5053433;28;20020;-80
2023/05/17 09:45:02;;;;;;;19.35;3.65;;;;;;;;;;5053769;28;20109;-79
2023/05/17 09:47:34;;;;;;;26.35;4.28;;;;;;;;;;5055523;28;20081;-75
2023/05/17 09:50:03;;;;;;;24.10;3.78;;;;;;;;;;5051950;28;20502;-74
2023/05/17 09:52:30;;;;;;;23.20;4.43;;;;;;;;;;5051003;28;20029;-74
2023/05/17 09:54:57;;;;;;;18.50;3.20;;;;;;;;;;5052524;28;20555;-74
2023/05/17 09:57:25;;;;;;;17.58;3.83;;;;;;;;;;5053202;28;20028;-74
2023/05/17 09:59:54;;;;;;;22.95;3.58;;;;;;;;;;5053872;28;20505;-73
2023/05/17 10:02:24;;;;;;;26.65;3.72;;;;;;;;;;5053354;28;20385;-73
2023/05/17 10:04:52;;;;;;;28.70;3.70;;;;;;;;;;5052092;28;20024;-74
2023/05/17 10:07:20;;;;;;;22.27;4.18;;;;;;;;;;5053542;28;20144;-72
2023/05/17 10:09:49;;;;;;;25.00;4.32;;;;;;;;;;5052578;28;20044;-74
2023/05/17 10:12:21;;;;;;;21.40;3.63;;;;;;;;;;5051636;28;20064;-72
2023/05/17 10:14:47;;;;;;;31.60;4.63;;;;;;;;;;5054256;28;20092;-74
2023/05/17 10:17:13;;;;;;;38.90;4.40;;;;;;;;;;5055016;28;20025;-74
2023/05/17 10:19:40;;;;;;;20.90;3.90;;;;;;;;;;5055753;28;20025;-73
2023/05/17 10:22:06;;;;;;;19.38;2.83;;;;;;;;;;5053732;28;20032;-75
2023/05/17 10:24:33;;;;;;;16.52;3.65;;;;;;;;;;5027716;28;20083;-74
2023/05/17 10:27:00;;;;;;;17.67;3.03;;;;;;;;;;5020690;28;20065;-74
2023/05/17 10:29:26;;;;;;;13.30;3.25;;;;;;;;;;5016553;28;20080;-74
2023/05/17 10:31:52;;;;;;;20.27;3.45;;;;;;;;;;5022302;28;20383;-73
2023/05/17 10:34:19;;;;;;;16.95;3.28;;;;;;;;;;5026646;28;20022;-75
2023/05/17 10:36:45;;;;;;;24.20;3.63;;;;;;;;;;5022993;28;20491;-74
2023/05/17 10:39:11;;;;;;;13.63;3.22;;;;;;;;;;5022372;28;20097;-73
2023/05/17 10:41:42;;;;;;;14.73;3.63;;;;;;;;;;5023924;28;20479;-74
2023/05/17 10:44:11;;;;;;;15.20;3.15;;;;;;;;;;5024991;28;20052;-74
2023/05/17 10:46:38;;;;;;;17.40;3.25;;;;;;;;;;5027475;28;20095;-73
2023/05/17 10:49:04;;;;;;;17.10;3.20;;;;;;;;;;5026293;28;20079;-74
2023/05/17 10:51:31;;;;;;;19.27;3.55;;;;;;;;;;5027686;28;20044;-74
2023/05/17 10:54:17;;;;;;;28.85;10.35;;;;;;;;;;5023777;28;20022;-73
2023/05/17 10:56:49;;;;;;;12.43;2.92;;;;;;;;;;5025276;28;20029;-75
2023/05/17 10:59:20;;;;;;;17.85;3.08;;;;;;;;;;5022551;28;20133;-75
2023/05/17 11:02:05;;;;;;;14.13;2.60;;;;;;;;;;5023729;28;20100;-74
2023/05/17 11:04:36;;;;;;;14.98;2.45;;;;;;;;;;5024117;28;20084;-72
2023/05/17 11:07:24;;;;;;;10.43;2.25;;;;;;;;;;5029672;28;20061;-74
2023/05/17 11:10:04;;;;;;;15.65;2.60;;;;;;;;;;5026633;28;20120;-74
2023/05/17 11:12:41;;;;;;;18.45;3.50;;;;;;;;;;5024472;28;20108;-74
2023/05/17 11:15:08;;;;;;;14.15;3.17;;;;;;;;;;5031933;28;20471;-74
2023/05/17 11:17:48;;;;;;;17.42;4.10;;;;;;;;;;5032782;28;20025;-74
2023/05/17 11:20:14;;;;;;;13.60;3.33;;;;;;;;;;5024811;28;20570;-74
2023/05/17 11:22:42;;;;;;;20.27;4.90;;;;;;;;;;5032980;28;20029;-73
2023/05/17 11:25:09;;;;;;;16.90;3.55;;;;;;;;;;5031296;28;20029;-74
2023/05/17 11:27:36;;;;;;;13.18;2.75;;;;;;;;;;5031175;28;20028;-74
2023/05/17 11:30:20;;;;;;;16.23;3.63;;;;;;;;;;5029435;28;20041;-72
2023/05/17 11:32:51;;;;;;;20.70;3.67;;;;;;;;;;5029835;28;20056;-73
2023/05/17 11:35:18;;;;;;;21.48;3.47;;;;;;;;;;5030874;28;20032;-73
2023/05/17 11:37:44;;;;;;;14.52;2.72;;;;;;;;;;5031260;28;20353;-72
2023/05/17 11:40:14;;;;;;;15.77;2.95;;;;;;;;;;5033360;28;20048;-74
2023/05/17 11:42:41;;;;;;;18.73;2.80;;;;;;;;;;5031680;28;20018;-73
2023/05/17 11:45:08;;;;;;;14.10;2.60;;;;;;;;;;5027327;28;20022;-74
2023/05/17 11:47:38;;;;;;;11.02;2.65;;;;;;;;;;5028645;28;20618;-74
2023/05/17 11:50:04;;;;;;;14.88;2.47;;;;;;;;;;5032225;28;20029;-75
2023/05/17 11:52:30;;;;;;;13.30;2.67;;;;;;;;;;5031956;28;20032;-74
2023/05/17 11:54:58;;;;;;;10.93;2.90;;;;;;;;;;5031806;28;20544;-74
2023/05/17 11:57:29;;;;;;;13.13;2.72;;;;;;;;;;5028173;28;20037;-74
2023/05/17 11:59:59;;;;;;;14.80;3.38;;;;;;;;;;5031777;28;20093;-73
2023/05/17 12:02:29;;;;;;;12.68;2.70;;;;;;;;;;5030308;28;20558;-74
2023/05/17 12:04:55;;;;;;;16.85;3.25;;;;;;;;;;5026331;28;20124;-74
2023/05/17 12:07:21;;;;;;;24.40;3.42;;;;;;;;;;5032050;28;20158;-73
2023/05/17 12:09:48;;;;;;;18.65;3.63;;;;;;;;;;5026516;28;20033;-74
2023/05/17 12:12:14;;;;;;;24.30;3.42;;;;;;;;;;5024115;28;20040;-74
2023/05/17 12:14:42;;;;;;;18.88;4.28;;;;;;;;;;5031502;28;20028;-74
2023/05/17 12:17:08;;;;;;;21.02;3.63;;;;;;;;;;5031825;28;20018;-74
2023/05/17 12:19:34;;;;;;;17.83;3.00;;;;;;;;;;5032525;28;20017;-75
2023/05/17 12:22:07;;;;;;;22.25;3.50;;;;;;;;;;5032865;28;20491;-74
2023/05/17 12:24:40;;;;;;;33.05;4.00;;;;;;;;;;5033292;28;20395;-74
2023/05/17 12:27:06;;;;;;;17.10;4.05;;;;;;;;;;5033119;28;20108;-75
2023/05/17 12:29:32;;;;;;;23.20;4.15;;;;;;;;;;5033594;28;20456;-75
2023/05/17 12:32:00;;;;;;;25.80;4.53;;;;;;;;;;5033104;28;20026;-74
2023/05/17 12:34:26;;;;;;;20.80;3.38;;;;;;;;;;5033421;28;20017;-74
2023/05/17 12:36:52;;;;;;;13.65;2.70;;;;;;;;;;5033484;28;20498;-73
2023/05/17 12:39:22;;;;;;;18.83;2.90;;;;;;;;;;5033289;28;20033;-73
2023/05/17 12:41:50;;;;;;;18.02;3.05;;;;;;;;;;5032898;28;20037;-73
2023/05/17 12:44:16;;;;;;;18.45;3.05;;;;;;;;;;5033600;28;20040;-73
2023/05/17 12:46:42;;;;;;;21.15;3.45;;;;;;;;;;5026894;28;20030;-73
2023/05/17 12:49:10;;;;;;;17.45;3.30;;;;;;;;;;5032920;28;20025;-74
2023/05/17 12:51:43;;;;;;;13.75;2.90;;;;;;;;;;5032092;28;20026;-74
2023/05/17 12:54:09;;;;;;;13.02;2.90;;;;;;;;;;5033245;28;20114;-74
2023/05/17 12:56:35;;;;;;;10.23;2.40;;;;;;;;;;5032703;28;20026;-72
2023/05/17 12:59:06;;;;;;;13.25;2.60;;;;;;;;;;5031726;28;20105;-73
2023/05/17 13:01:33;;;;;;;18.23;2.72;;;;;;;;;;5031636;28;20167;-73
2023/05/17 13:03:59;;;;;;;14.32;2.78;;;;;;;;;;5031633;28;20036;-74
2023/05/17 13:06:25;;;;;;;16.88;3.08;;;;;;;;;;5024154;28;20028;-74
2023/05/17 13:08:58;;;;;;;18.35;2.90;;;;;;;;;;5031696;28;20029;-73
2023/05/17 13:11:25;;;;;;;12.65;2.75;;;;;;;;;;5031985;28;20025;-74
2023/05/17 13:13:51;;;;;;;12.90;2.92;;;;;;;;;;5031366;28;20028;-74
2023/05/17 13:16:17;;;;;;;14.82;2.65;;;;;;;;;;5031724;28;20087;-74
2023/05/17 13:18:50;;;;;;;14.68;2.40;;;;;;;;;;5031393;28;20030;-74
2023/05/17 13:21:17;;;;;;;14.98;2.85;;;;;;;;;;5031356;28;20556;-73
2023/05/17 13:23:43;;;;;;;19.98;4.95;;;;;;;;;;5030280;28;20029;-74
2023/05/17 13:26:09;;;;;;;12.43;2.75;;;;;;;;;;5031350;28;20025;-73
2023/05/17 13:28:36;;;;;;;13.23;3.22;;;;;;;;;;5031487;28;20029;-74
2023/05/17 13:31:02;;;;;;;15.50;3.38;;;;;;;;;;5031932;28;20037;-74
2023/05/17 13:33:28;;;;;;;19.55;3.10;;;;;;;;;;5031302;28;20475;-73
2023/05/17 13:35:54;;;;;;;18.38;3.40;;;;;;;;;;5031483;28;20452;-73
2023/05/17 13:38:20;;;;;;;19.48;3.60;;;;;;;;;;5030299;28;20139;-73
2023/05/17 13:40:46;;;;;;;20.90;3.17;;;;;;;;;;5031224;28;20514;-74
2023/05/17 13:43:12;;;;;;;17.10;4.00;;;;;;;;;;5026933;28;20021;-73
2023/05/17 13:45:38;;;;;;;18.08;3.75;;;;;;;;;;5025287;28;20503;-74
2023/05/17 13:48:04;;;;;;;13.57;3.40;;;;;;;;;;5031341;28;20369;-74
2023/05/17 13:50:30;;;;;;;23.83;3.55;;;;;;;;;;5030159;28;20492;-74
2023/05/17 13:52:56;;;;;;;24.05;4.07;;;;;;;;;;5031302;28;20076;-73
2023/05/17 13:55:22;;;;;;;18.00;2.85;;;;;;;;;;5031538;28;20100;-74
2023/05/17 13:57:48;;;;;;;18.45;3.70;;;;;;;;;;5031850;28;20052;-75
2023/05/17 14:00:15;;;;;;;13.98;2.78;;;;;;;;;;5031580;28;20049;-73
2023/05/17 14:02:41;;;;;;;14.82;2.97;;;;;;;;;;5031155;28;20022;-74
2023/05/17 14:05:08;;;;;;;19.80;3.67;;;;;;;;;;5031479;28;20038;-74
2023/05/17 14:07:35;;;;;;;11.40;2.45;;;;;;;;;;5031482;28;20021;-73
2023/05/17 14:10:01;;;;;;;20.92;2.90;;;;;;;;;;5031999;28;20021;-77
2023/05/17 14:12:27;;;;;;;24.10;3.85;;;;;;;;;;5037154;28;20092;-78
2023/05/17 14:14:53;;;;;;;18.88;3.20;;;;;;;;;;5036395;28;20395;-71
2023/05/17 14:17:19;;;;;;;15.27;3.28;;;;;;;;;;5035828;28;20014;-73
2023/05/17 14:19:45;;;;;;;13.80;2.92;;;;;;;;;;5035959;28;20030;-73
2023/05/17 14:22:12;;;;;;;18.73;3.42;;;;;;;;;;5035075;28;20099;-72
2023/05/17 14:24:38;;;;;;;17.85;3.00;;;;;;;;;;5035732;28;20058;-74
2023/05/17 14:27:04;;;;;;;18.10;3.72;;;;;;;;;;5035032;28;20465;-74
2023/05/17 14:29:31;;;;;;;20.88;3.10;;;;;;;;;;5034789;28;20108;-74